Time;durP1;ratioP1;P1;durP2;ratioP2;P2;SDS_P1;SDS_P2;PMS_P1;PMS_P2;Temp;Humidity;BMP_temperature;BMP_pressure;BME280_temperature;BME280_humidity;BME280_pressure;Samples;Min_cycle;Max_cycle;Signal;HPM_P1;HPM_P2
2022/03/25 00:00:47;;;;;;;82.97;56.75;;;6.80;80.80;;;;;;4931700;29;20095;-70
2022/03/25 00:03:13;;;;;;;79.65;55.97;;;6.80;80.80;;;;;;4931960;29;20421;-70
2022/03/25 00:05:38;;;;;;;82.22;56.20;;;6.80;80.80;;;;;;4931597;29;20041;-70
2022/03/25 00:08:04;;;;;;;82.80;56.95;;;6.70;80.80;;;;;;4933001;29;20130;-70
2022/03/25 00:10:30;;;;;;;84.28;57.13;;;6.70;80.90;;;;;;4932641;29;20094;-70
2022/03/25 00:12:55;;;;;;;84.65;57.72;;;6.80;80.90;;;;;;4931621;29;20040;-70
2022/03/25 00:15:22;;;;;;;86.35;57.88;;;6.70;80.90;;;;;;4929959;29;20051;-70
2022/03/25 00:17:47;;;;;;;86.72;56.63;;;6.70;81.10;;;;;;4897454;29;20134;-69
2022/03/25 00:20:13;;;;;;;89.57;56.60;;;6.70;81.00;;;;;;4928671;29;20126;-69
2022/03/25 00:22:39;;;;;;;82.07;55.97;;;6.70;81.10;;;;;;4915342;29;20039;-70
2022/03/25 00:25:05;;;;;;;82.75;57.25;;;6.80;81.10;;;;;;4931630;29;20046;-70
2022/03/25 00:27:34;;;;;;;76.72;54.00;;;6.80;81.10;;;;;;4932795;29;20048;-70
2022/03/25 00:30:01;;;;;;;81.68;58.33;;;6.80;81.10;;;;;;4931442;29;20035;-70
2022/03/25 00:32:26;;;;;;;84.43;56.70;;;6.80;81.10;;;;;;4932642;29;20044;-70
2022/03/25 00:34:53;;;;;;;81.85;57.03;;;6.80;81.10;;;;;;4932696;29;20067;-70
2022/03/25 00:37:18;;;;;;;87.07;57.80;;;6.70;81.00;;;;;;4930769;29;20054;-69
2022/03/25 00:39:44;;;;;;;88.88;58.53;;;6.70;80.90;;;;;;4915605;29;20114;-69
2022/03/25 00:42:12;;;;;;;76.78;55.17;;;6.70;80.90;;;;;;4930956;29;20460;-69
2022/03/25 00:44:38;;;;;;;83.50;55.80;;;6.60;81.00;;;;;;4913359;29;20520;-69
2022/03/25 00:47:04;;;;;;;88.70;56.53;;;6.60;81.00;;;;;;4932401;29;20127;-69
2022/03/25 00:49:30;;;;;;;83.72;56.40;;;6.60;81.10;;;;;;4931592;29;20556;-69
2022/03/25 00:51:56;;;;;;;84.03;58.33;;;6.60;81.10;;;;;;4927556;29;20122;-69
2022/03/25 00:54:22;;;;;;;85.45;55.67;;;6.60;81.30;;;;;;4930610;29;20055;-69
2022/03/25 00:56:48;;;;;;;84.28;54.95;;;6.60;81.50;;;;;;4929627;29;20044;-69
2022/03/25 00:59:15;;;;;;;78.95;56.15;;;6.60;81.40;;;;;;4914610;29;20047;-70
2022/03/25 01:01:41;;;;;;;77.03;54.42;;;6.60;81.40;;;;;;4930794;29;20056;-70
2022/03/25 01:04:08;;;;;;;83.15;54.80;;;6.60;81.40;;;;;;4909905;29;20056;-70
2022/03/25 01:06:34;;;;;;;82.85;53.78;;;6.60;81.50;;;;;;4911970;29;20114;-70
2022/03/25 01:09:01;;;;;;;75.45;53.20;;;6.60;81.50;;;;;;4914229;29;20528;-70
2022/03/25 01:11:27;;;;;;;86.75;54.90;;;6.60;81.60;;;;;;4914657;29;20083;-70
2022/03/25 01:13:52;;;;;;;77.75;53.17;;;6.60;81.70;;;;;;4912435;29;20044;-70
2022/03/25 01:16:18;;;;;;;74.80;53.63;;;6.60;81.60;;;;;;4917237;29;20199;-70
2022/03/25 01:18:44;;;;;;;72.93;52.13;;;6.60;81.60;;;;;;4914723;29;20048;-69
2022/03/25 01:21:10;;;;;;;75.80;52.42;;;6.60;81.60;;;;;;4915562;29;20555;-70
2022/03/25 01:23:36;;;;;;;76.15;53.35;;;6.60;81.60;;;;;;4914900;29;20442;-69
2022/03/25 01:26:03;;;;;;;85.85;57.33;;;6.60;81.60;;;;;;4914170;29;20119;-69
2022/03/25 01:28:34;;;;;;;78.93;52.00;;;6.60;81.60;;;;;;4914260;29;20052;-70
2022/03/25 01:31:03;;;;;;;85.78;54.60;;;6.60;81.60;;;;;;4914764;29;20554;-70
2022/03/25 01:33:30;;;;;;;77.25;51.03;;;6.60;81.60;;;;;;4912683;29;20188;-70
2022/03/25 01:35:56;;;;;;;79.13;52.45;;;6.60;81.60;;;;;;4913458;29;20851;-69
2022/03/25 01:38:23;;;;;;;79.93;53.33;;;6.60;81.60;;;;;;4914742;29;20044;-69
2022/03/25 01:40:48;;;;;;;83.18;53.35;;;6.50;81.60;;;;;;4914260;29;20059;-70
2022/03/25 01:43:14;;;;;;;74.68;53.45;;;6.60;81.60;;;;;;4914685;29;20040;-70
2022/03/25 01:45:40;;;;;;;77.88;52.78;;;6.50;81.70;;;;;;4915016;29;20123;-70
2022/03/25 01:48:11;;;;;;;78.70;53.95;;;6.50;81.70;;;;;;4914034;29;20051;-69
2022/03/25 01:50:39;;;;;;;75.97;52.60;;;6.50;81.90;;;;;;4915318;29;20052;-69
2022/03/25 01:53:17;;;;;;;73.72;52.10;;;6.50;81.90;;;;;;4909497;29;20047;-70
2022/03/25 01:55:50;;;;;;;80.32;52.63;;;6.50;81.90;;;;;;4908436;29;20048;-70
2022/03/25 01:58:16;;;;;;;77.60;53.38;;;6.50;82.00;;;;;;4908945;29;20110;-69
2022/03/25 02:00:42;;;;;;;79.85;53.60;;;6.60;82.00;;;;;;4908484;29;20512;-70
2022/03/25 02:03:07;;;;;;;74.25;52.13;;;6.60;82.00;;;;;;4911428;29;20071;-69
2022/03/25 02:05:35;;;;;;;70.22;49.78;;;6.60;81.90;;;;;;4927068;29;20048;-69
2022/03/25 02:08:01;;;;;;;78.22;52.53;;;6.60;81.80;;;;;;4916470;29;20123;-69
2022/03/25 02:10:27;;;;;;;71.68;48.47;;;6.70;81.80;;;;;;4929671;29;20075;-69
2022/03/25 02:12:53;;;;;;;68.38;47.97;;;6.70;81.60;;;;;;4922664;29;20044;-69
2022/03/25 02:15:18;;;;;;;75.32;50.42;;;6.70;81.50;;;;;;4933720;29;20497;-69
2022/03/25 02:17:44;;;;;;;66.70;46.90;;;6.70;81.40;;;;;;4915097;29;20652;-70
2022/03/25 02:20:12;;;;;;;72.28;49.55;;;6.60;81.10;;;;;;4909776;29;20055;-69
2022/03/25 02:22:40;;;;;;;68.18;48.97;;;6.60;80.90;;;;;;4930572;29;20098;-70
2022/03/25 02:25:09;;;;;;;66.35;48.20;;;6.50;80.90;;;;;;4920129;29;20076;-70
2022/03/25 02:27:37;;;;;;;64.47;46.05;;;6.50;80.90;;;;;;4917309;29;20099;-70
2022/03/25 02:30:06;;;;;;;60.85;43.97;;;6.40;80.70;;;;;;4921708;29;20544;-70
2022/03/25 02:32:32;;;;;;;64.57;43.05;;;6.40;80.70;;;;;;4890802;29;20044;-69
2022/03/25 02:34:58;;;;;;;57.92;39.67;;;6.40;80.60;;;;;;4928084;29;20162;-70
2022/03/25 02:37:25;;;;;;;65.60;43.90;;;6.40;80.60;;;;;;4934056;29;20167;-70
2022/03/25 02:39:52;;;;;;;69.65;45.47;;;6.40;80.60;;;;;;4917927;29;20044;-69
2022/03/25 02:42:18;;;;;;;67.38;45.72;;;6.50;80.60;;;;;;4908003;29;20592;-69
2022/03/25 02:44:43;;;;;;;65.88;44.08;;;6.40;80.50;;;;;;4929539;29;20042;-69
2022/03/25 02:47:09;;;;;;;65.65;46.58;;;6.50;80.50;;;;;;4934269;29;20047;-68
2022/03/25 02:49:35;;;;;;;70.18;46.05;;;6.50;80.50;;;;;;4918278;29;20076;-68
2022/03/25 02:52:00;;;;;;;66.85;45.47;;;6.50;80.50;;;;;;4916947;29;20064;-68
2022/03/25 02:54:26;;;;;;;57.97;43.15;;;6.60;80.50;;;;;;4919952;29;20388;-68
2022/03/25 02:56:52;;;;;;;61.70;45.55;;;6.60;80.50;;;;;;4930082;29;20051;-69
2022/03/25 02:59:17;;;;;;;62.78;44.85;;;6.60;80.50;;;;;;4928628;29;20047;-69
2022/03/25 03:01:43;;;;;;;67.68;45.55;;;6.60;80.40;;;;;;4927489;29;20039;-69
2022/03/25 03:04:09;;;;;;;64.00;45.15;;;6.60;80.40;;;;;;4919431;29;20097;-70
2022/03/25 03:06:35;;;;;;;67.97;45.78;;;6.50;80.40;;;;;;4919474;29;20047;-69
2022/03/25 03:09:00;;;;;;;63.42;44.80;;;6.60;80.40;;;;;;4918105;29;20404;-69
2022/03/25 03:11:28;;;;;;;54.70;40.83;;;6.60;80.50;;;;;;4918939;29;20589;-69
2022/03/25 03:13:54;;;;;;;69.07;44.58;;;6.60;80.40;;;;;;4916137;29;20048;-70
2022/03/25 03:16:19;;;;;;;65.35;45.33;;;6.60;80.40;;;;;;4929176;29;20044;-69
2022/03/25 03:18:45;;;;;;;65.32;44.92;;;6.60;80.20;;;;;;4906620;29;20064;-70
2022/03/25 03:21:11;;;;;;;65.75;45.28;;;6.60;80.20;;;;;;4929316;29;20127;-70
2022/03/25 03:23:37;;;;;;;62.72;42.67;;;6.50;80.10;;;;;;4930247;29;20130;-69
2022/03/25 03:26:03;;;;;;;67.75;43.55;;;6.40;80.00;;;;;;4917664;29;20152;-70
2022/03/25 03:28:29;;;;;;;63.20;42.00;;;6.40;80.10;;;;;;4920740;29;20040;-70
2022/03/25 03:30:55;;;;;;;60.83;42.38;;;6.30;80.20;;;;;;4919584;29;20117;-69
2022/03/25 03:33:21;;;;;;;70.57;44.00;;;6.30;80.30;;;;;;4883784;29;20058;-69
2022/03/25 03:35:47;;;;;;;68.32;46.15;;;6.30;80.40;;;;;;4925263;29;20040;-69
2022/03/25 03:38:13;;;;;;;65.65;44.80;;;6.30;80.40;;;;;;4919922;29;20049;-70
2022/03/25 03:40:39;;;;;;;61.78;42.58;;;6.20;80.40;;;;;;4925420;29;20047;-69
2022/03/25 03:43:05;;;;;;;70.05;43.95;;;6.20;80.40;;;;;;4916070;29;20043;-69
2022/03/25 03:45:32;;;;;;;64.38;44.53;;;6.20;80.60;;;;;;4930131;29;20074;-69
2022/03/25 03:47:58;;;;;;;61.95;43.63;;;6.30;80.60;;;;;;4909091;29;20159;-68
2022/03/25 03:50:24;;;;;;;64.20;43.17;;;6.30;80.60;;;;;;4919139;29;20138;-69
2022/03/25 03:52:50;;;;;;;61.78;44.03;;;6.30;80.50;;;;;;4932151;29;20072;-69
2022/03/25 03:55:16;;;;;;;63.25;44.17;;;6.20;80.50;;;;;;4929922;29;20052;-69
2022/03/25 03:57:41;;;;;;;64.07;44.28;;;6.20;80.60;;;;;;4929290;29;20052;-69
2022/03/25 04:00:12;;;;;;;60.97;42.42;;;6.20;80.50;;;;;;4921871;29;20169;-69
2022/03/25 04:02:39;;;;;;;64.63;43.47;;;6.10;80.60;;;;;;4914328;29;20099;-69
2022/03/25 04:05:05;;;;;;;62.13;43.22;;;6.10;80.70;;;;;;4925715;29;20058;-70
2022/03/25 04:07:31;;;;;;;65.65;44.83;;;6.10;80.80;;;;;;4924388;29;20424;-70
2022/03/25 04:09:57;;;;;;;71.35;47.55;;;6.10;80.90;;;;;;4918770;29;20052;-70
2022/03/25 04:12:23;;;;;;;67.28;44.70;;;6.10;81.00;;;;;;4928606;29;20561;-70
2022/03/25 04:14:48;;;;;;;69.13;46.50;;;6.10;80.90;;;;;;4914331;29;20124;-70
2022/03/25 04:17:15;;;;;;;69.68;44.00;;;6.10;80.90;;;;;;4931496;29;20036;-69
2022/03/25 04:19:40;;;;;;;69.00;47.35;;;6.10;80.80;;;;;;4929846;29;20072;-69
2022/03/25 04:22:06;;;;;;;68.30;46.55;;;6.00;80.90;;;;;;4930511;29;20047;-70
2022/03/25 04:24:32;;;;;;;67.68;47.28;;;6.10;81.00;;;;;;4923055;29;20046;-69
2022/03/25 04:26:58;;;;;;;64.90;43.17;;;6.10;81.00;;;;;;4926518;29;20126;-69
2022/03/25 04:29:25;;;;;;;62.10;43.67;;;6.00;81.20;;;;;;4913180;29;20132;-69
2022/03/25 04:31:51;;;;;;;63.80;45.55;;;6.10;81.20;;;;;;4929680;29;20090;-69
2022/03/25 04:34:16;;;;;;;71.00;46.50;;;6.10;81.20;;;;;;4927553;29;20035;-69
2022/03/25 04:36:42;;;;;;;63.97;42.63;;;6.10;81.20;;;;;;4927286;29;20051;-69
2022/03/25 04:39:07;;;;;;;67.18;46.13;;;6.10;81.20;;;;;;4931894;29;20044;-68
2022/03/25 04:41:34;;;;;;;71.70;50.13;;;6.20;81.20;;;;;;4931184;29;20062;-69
2022/03/25 04:43:59;;;;;;;73.07;48.22;;;6.10;81.10;;;;;;4926477;29;20478;-69
2022/03/25 04:46:25;;;;;;;70.47;48.28;;;6.10;81.00;;;;;;4922114;29;20083;-69
2022/03/25 04:48:51;;;;;;;69.57;46.58;;;6.10;81.00;;;;;;4918274;29;20059;-69
2022/03/25 04:51:16;;;;;;;67.72;46.10;;;6.10;81.10;;;;;;4953302;28;20503;-70
2022/03/25 04:53:42;;;;;;;69.28;48.15;;;6.10;81.20;;;;;;4927048;29;20055;-68
2022/03/25 04:56:08;;;;;;;74.97;49.60;;;6.10;81.20;;;;;;4934653;29;20052;-68
2022/03/25 04:58:34;;;;;;;75.68;50.30;;;6.10;81.00;;;;;;4931145;29;20468;-69
2022/03/25 05:01:00;;;;;;;75.95;50.38;;;6.10;81.00;;;;;;4930125;29;20043;-70
2022/03/25 05:03:25;;;;;;;76.50;51.85;;;6.00;81.00;;;;;;4916448;29;20111;-69
2022/03/25 05:05:51;;;;;;;74.75;51.33;;;6.00;81.10;;;;;;4934405;29;20408;-69
2022/03/25 05:08:17;;;;;;;78.28;51.05;;;5.90;81.20;;;;;;4928772;29;20103;-69
2022/03/25 05:10:42;;;;;;;76.95;49.75;;;5.90;81.30;;;;;;4928627;29;20405;-68
2022/03/25 05:13:11;;;;;;;80.50;52.35;;;5.90;81.40;;;;;;4920509;29;20504;-69
2022/03/25 05:15:37;;;;;;;78.38;51.95;;;5.90;81.50;;;;;;4916882;29;20405;-69
2022/03/25 05:18:03;;;;;;;74.97;49.80;;;5.80;81.60;;;;;;4917175;29;20040;-69
2022/03/25 05:20:29;;;;;;;79.32;51.55;;;5.90;81.70;;;;;;4924190;29;20047;-69
2022/03/25 05:22:54;;;;;;;80.60;51.88;;;5.80;81.70;;;;;;4926074;29;20055;-69
2022/03/25 05:25:20;;;;;;;73.72;49.67;;;5.80;81.70;;;;;;4917207;29;20040;-68
2022/03/25 05:27:52;;;;;;;76.45;51.00;;;5.80;81.70;;;;;;4916715;29;20052;-69
2022/03/25 05:30:24;;;;;;;77.28;48.22;;;5.80;81.80;;;;;;4932864;29;20043;-69
2022/03/25 05:32:50;;;;;;;72.95;48.92;;;5.80;81.90;;;;;;4934441;29;20047;-69
2022/03/25 05:35:16;;;;;;;83.60;51.60;;;5.70;81.90;;;;;;4919677;29;20127;-69
2022/03/25 05:37:42;;;;;;;76.30;50.33;;;5.70;81.90;;;;;;4922818;29;20625;-69
2022/03/25 05:40:09;;;;;;;75.72;49.03;;;5.70;81.90;;;;;;4920790;29;20067;-69
2022/03/25 05:42:35;;;;;;;78.55;49.00;;;5.70;82.00;;;;;;4934400;29;20102;-70
2022/03/25 05:45:02;;;;;;;76.55;49.80;;;5.70;82.00;;;;;;4928694;29;20039;-69
2022/03/25 05:47:28;;;;;;;81.47;49.90;;;5.70;82.00;;;;;;4922649;29;20055;-70
2022/03/25 05:49:54;;;;;;;77.25;49.55;;;5.70;82.00;;;;;;4915387;29;20052;-70
2022/03/25 05:52:19;;;;;;;74.85;47.45;;;5.70;82.00;;;;;;4920394;29;20051;-70
2022/03/25 05:54:45;;;;;;;73.30;46.13;;;5.60;82.10;;;;;;4919111;29;20032;-69
2022/03/25 05:57:11;;;;;;;73.57;45.38;;;5.70;82.10;;;;;;4937743;29;20048;-68
2022/03/25 05:59:36;;;;;;;72.60;45.90;;;5.70;82.10;;;;;;4911087;29;20091;-69
2022/03/25 06:02:02;;;;;;;72.35;47.33;;;5.70;82.10;;;;;;4929540;29;20044;-69
2022/03/25 06:04:28;;;;;;;68.45;46.10;;;5.60;82.10;;;;;;4923907;29;20548;-68
2022/03/25 06:06:54;;;;;;;69.72;45.15;;;5.70;82.10;;;;;;4926088;29;20040;-69
2022/03/25 06:09:20;;;;;;;70.63;44.72;;;5.70;82.20;;;;;;4922509;29;20051;-71
2022/03/25 06:11:45;;;;;;;65.30;43.30;;;5.70;82.10;;;;;;4919410;29;20054;-69
2022/03/25 06:14:11;;;;;;;72.55;45.58;;;5.80;82.10;;;;;;4940515;29;20043;-70
2022/03/25 06:16:39;;;;;;;68.22;45.75;;;5.80;82.10;;;;;;4953428;29;20047;-69
2022/03/25 06:19:05;;;;;;;49.13;32.33;;;5.80;82.10;;;;;;4950454;28;20040;-63
2022/03/25 06:21:31;;;;;;;64.78;41.60;;;6.40;86.00;;;;;;4933796;29;20150;-63
2022/03/25 06:23:56;;;;;;;66.90;43.95;;;6.60;84.90;;;;;;4926706;29;20927;-63
2022/03/25 06:26:22;;;;;;;61.78;40.25;;;6.80;83.60;;;;;;4930177;29;20035;-63
2022/03/25 06:28:48;;;;;;;65.65;40.78;;;6.80;82.80;;;;;;4933267;29;20048;-62
2022/03/25 06:31:13;;;;;;;64.70;41.42;;;7.20;82.90;;;;;;4930862;29;20044;-62
2022/03/25 06:33:39;;;;;;;57.35;38.13;;;7.40;81.70;;;;;;4918614;29;20127;-63
2022/03/25 06:36:07;;;;;;;57.50;39.53;;;7.80;80.90;;;;;;4932468;29;20055;-63
2022/03/25 06:38:33;;;;;;;57.17;37.08;;;8.00;79.70;;;;;;4914930;29;20099;-63
2022/03/25 06:41:01;;;;;;;57.92;39.83;;;8.20;78.50;;;;;;4921568;29;20067;-69
2022/03/25 06:43:27;;;;;;;63.67;40.67;;;8.30;78.00;;;;;;4933226;29;20055;-68
2022/03/25 06:45:53;;;;;;;54.28;36.63;;;8.10;77.60;;;;;;4924087;29;20080;-68
2022/03/25 06:48:19;;;;;;;55.63;36.88;;;7.90;77.40;;;;;;4932928;29;20051;-68
2022/03/25 06:50:44;;;;;;;58.42;39.53;;;7.70;77.50;;;;;;4923604;29;20043;-67
2022/03/25 06:53:10;;;;;;;56.97;38.35;;;7.60;77.70;;;;;;4897187;29;20153;-69
2022/03/25 06:55:36;;;;;;;57.80;39.05;;;7.50;78.00;;;;;;4923547;29;20504;-65
2022/03/25 06:58:02;;;;;;;55.53;38.75;;;7.40;78.20;;;;;;4917551;29;20092;-65
2022/03/25 07:00:28;;;;;;;60.20;38.72;;;7.30;78.30;;;;;;4921036;29;20055;-65
2022/03/25 07:02:54;;;;;;;57.50;39.95;;;7.30;78.50;;;;;;4932926;29;20040;-64
2022/03/25 07:05:21;;;;;;;60.42;38.08;;;7.30;78.70;;;;;;4925874;29;20143;-65
2022/03/25 07:07:47;;;;;;;56.88;35.42;;;7.30;78.70;;;;;;4931854;29;20471;-64
2022/03/25 07:10:14;;;;;;;55.22;37.15;;;7.30;78.90;;;;;;4917609;29;20036;-65
2022/03/25 07:12:42;;;;;;;55.83;37.80;;;7.40;79.20;;;;;;4932394;29;20129;-64
2022/03/25 07:15:09;;;;;;;52.63;36.17;;;7.50;79.00;;;;;;4915076;29;20047;-66
2022/03/25 07:17:37;;;;;;;56.80;38.53;;;7.50;78.80;;;;;;4931999;29;20103;-64
2022/03/25 07:20:04;;;;;;;53.50;36.83;;;7.60;78.70;;;;;;4918560;29;20524;-64
2022/03/25 07:22:29;;;;;;;56.25;37.53;;;7.50;78.60;;;;;;4929405;29;20150;-65
2022/03/25 07:24:55;;;;;;;52.30;36.90;;;7.60;78.60;;;;;;4931997;29;20541;-66
2022/03/25 07:27:21;;;;;;;52.78;38.22;;;7.60;78.50;;;;;;4931672;29;20102;-65
2022/03/25 07:29:46;;;;;;;53.97;36.40;;;7.60;78.50;;;;;;4932319;29;20488;-64
2022/03/25 07:32:12;;;;;;;61.85;38.35;;;7.60;78.40;;;;;;4932546;29;20457;-65
2022/03/25 07:34:38;;;;;;;54.92;36.85;;;7.60;78.50;;;;;;4920726;29;20040;-64
2022/03/25 07:37:04;;;;;;;55.00;35.13;;;7.60;78.40;;;;;;4913409;29;20059;-65
2022/03/25 07:39:31;;;;;;;53.25;34.50;;;7.70;78.30;;;;;;4913480;29;20139;-65
2022/03/25 07:41:57;;;;;;;53.13;34.83;;;7.70;78.20;;;;;;4913482;29;20405;-65
2022/03/25 07:44:22;;;;;;;54.22;35.75;;;7.70;78.20;;;;;;4921739;29;20043;-65
2022/03/25 07:46:49;;;;;;;55.83;33.28;;;7.80;78.10;;;;;;4922292;29;20088;-65
2022/03/25 07:49:15;;;;;;;50.88;34.67;;;7.80;78.10;;;;;;4928065;29;20548;-65
2022/03/25 07:51:41;;;;;;;51.50;34.30;;;8.00;78.00;;;;;;4951197;28;20133;-66
2022/03/25 07:54:07;;;;;;;50.85;34.20;;;8.00;77.90;;;;;;4929958;29;20103;-65
2022/03/25 07:56:32;;;;;;;56.05;32.47;;;8.10;77.60;;;;;;4915836;29;20048;-65
2022/03/25 07:58:59;;;;;;;50.53;31.77;;;8.20;77.40;;;;;;4918090;29;20036;-65
2022/03/25 08:01:25;;;;;;;43.70;29.20;;;8.30;77.20;;;;;;4927759;29;20051;-65
2022/03/25 08:03:51;;;;;;;43.45;28.63;;;8.40;77.00;;;;;;4920769;29;20107;-64
2022/03/25 08:06:17;;;;;;;40.97;26.52;;;8.50;76.60;;;;;;4932194;29;20055;-66
2022/03/25 08:08:42;;;;;;;42.33;25.48;;;8.60;76.00;;;;;;4916084;29;20478;-65
2022/03/25 08:11:08;;;;;;;45.97;25.60;;;8.70;74.40;;;;;;4927518;29;20044;-64
2022/03/25 08:13:34;;;;;;;48.55;26.00;;;8.80;73.40;;;;;;4913842;29;20091;-66
2022/03/25 08:16:00;;;;;;;42.15;27.52;;;8.90;72.60;;;;;;4896609;29;20048;-66
2022/03/25 08:18:26;;;;;;;43.75;26.83;;;8.90;72.80;;;;;;4912366;29;20399;-65
2022/03/25 08:20:53;;;;;;;39.70;25.88;;;9.00;72.80;;;;;;4913368;29;20063;-67
2022/03/25 08:28:52;;;;;;;45.25;27.77;;;9.20;72.30;;;;;;4913034;29;20572;-66
2022/03/25 08:31:18;;;;;;;41.58;26.75;;;9.30;72.20;;;;;;4912948;29;20140;-67
2022/03/25 08:33:44;;;;;;;44.53;27.80;;;9.40;72.00;;;;;;4918306;29;20151;-66
2022/03/25 08:36:10;;;;;;;42.60;25.63;;;9.50;72.50;;;;;;4912947;29;20051;-69
2022/03/25 08:38:35;;;;;;;38.85;23.27;;;9.60;72.00;;;;;;4913320;29;20052;-67
2022/03/25 08:41:01;;;;;;;43.17;26.48;;;9.70;70.80;;;;;;4918183;29;20126;-67
2022/03/25 08:43:27;;;;;;;36.15;23.17;;;9.70;70.20;;;;;;4930396;29;20064;-67
2022/03/25 08:45:54;;;;;;;37.80;22.60;;;9.70;70.20;;;;;;4926551;29;20461;-66
2022/03/25 08:48:19;;;;;;;32.90;22.80;;;9.70;69.60;;;;;;4930282;29;20040;-67
2022/03/25 08:50:45;;;;;;;41.20;22.98;;;9.70;69.50;;;;;;4931182;29;20098;-67
2022/03/25 08:53:10;;;;;;;37.95;23.38;;;9.90;69.10;;;;;;4917141;29;20140;-67
2022/03/25 08:55:36;;;;;;;35.00;21.48;;;10.00;67.70;;;;;;4921645;29;20106;-66
2022/03/25 08:58:02;;;;;;;38.33;19.92;;;9.90;67.50;;;;;;4931281;29;20044;-66
2022/03/25 09:00:28;;;;;;;33.72;19.52;;;9.90;67.80;;;;;;4931633;29;20488;-67
2022/03/25 09:02:53;;;;;;;37.78;20.40;;;10.00;65.90;;;;;;4932166;29;20052;-68
2022/03/25 09:05:19;;;;;;;33.50;19.73;;;10.00;65.10;;;;;;4915685;29;20048;-67
2022/03/25 09:07:44;;;;;;;33.08;19.75;;;10.10;64.70;;;;;;4922365;29;20051;-67
2022/03/25 09:10:14;;;;;;;30.60;18.38;;;10.10;64.80;;;;;;4912403;29;20155;-67
2022/03/25 09:12:41;;;;;;;32.95;18.20;;;10.20;64.50;;;;;;4917895;29;20052;-67
2022/03/25 09:15:08;;;;;;;31.67;18.63;;;10.30;64.20;;;;;;4913400;29;20382;-67
2022/03/25 09:17:34;;;;;;;30.67;18.52;;;10.40;63.70;;;;;;4926170;29;20778;-66
2022/03/25 09:20:00;;;;;;;36.75;17.58;;;10.50;63.40;;;;;;4926880;29;20640;-67
2022/03/25 09:22:26;;;;;;;32.20;16.77;;;10.60;62.90;;;;;;4925417;29;20090;-67
2022/03/25 09:24:51;;;;;;;38.13;18.52;;;10.60;62.30;;;;;;4925221;29;20094;-67
2022/03/25 09:27:17;;;;;;;30.55;17.92;;;10.70;62.00;;;;;;4930254;29;20071;-67
2022/03/25 09:29:44;;;;;;;30.55;18.35;;;10.80;61.80;;;;;;4913551;29;20051;-68
2022/03/25 09:32:10;;;;;;;29.02;16.55;;;10.90;61.50;;;;;;4924354;29;20091;-67
2022/03/25 09:37:21;;;;;;;29.63;18.60;;;11.00;60.60;;;;;;4932567;29;20047;-66
2022/03/25 09:39:48;;;;;;;33.95;18.13;;;11.10;60.30;;;;;;4900828;29;20051;-68
2022/03/25 09:42:15;;;;;;;30.25;18.58;;;11.10;60.30;;;;;;4929591;29;20095;-65
2022/03/25 09:44:42;;;;;;;32.22;17.58;;;11.20;60.20;;;;;;4935784;29;20055;-65
2022/03/25 09:47:10;;;;;;;28.90;17.30;;;11.30;60.30;;;;;;4935364;29;20047;-66
2022/03/25 09:49:37;;;;;;;28.27;16.90;;;11.30;60.10;;;;;;4921151;29;20110;-66
2022/03/25 09:52:05;;;;;;;31.02;17.73;;;11.50;59.70;;;;;;4934878;29;20076;-66
2022/03/25 09:54:31;;;;;;;29.17;16.70;;;11.50;59.30;;;;;;4933446;29;20882;-66
2022/03/25 09:56:57;;;;;;;30.90;16.85;;;11.60;58.80;;;;;;4918102;29;20431;-65
2022/03/25 09:59:23;;;;;;;30.15;16.50;;;11.60;57.90;;;;;;4935698;29;20039;-66
2022/03/25 10:01:49;;;;;;;25.33;14.73;;;11.70;57.50;;;;;;4934308;29;20157;-66
2022/03/25 10:04:43;;;;;;;25.30;14.88;;;11.80;56.50;;;;;;4926723;29;20070;-65
2022/03/25 10:07:30;;;;;;;26.52;13.70;;;12.00;53.30;;;;;;4916517;29;20098;-66
2022/03/25 10:10:12;;;;;;;26.77;15.23;;;12.00;55.00;;;;;;4916391;29;20134;-67
2022/03/25 10:12:39;;;;;;;28.45;14.60;;;12.10;53.80;;;;;;4935277;29;20103;-67
2022/03/25 10:15:14;;;;;;;31.50;14.90;;;12.10;54.30;;;;;;4930858;29;20122;-66
2022/03/25 10:18:01;;;;;;;28.73;14.40;;;12.20;54.40;;;;;;4934795;29;20061;-66
2022/03/25 10:20:38;;;;;;;32.63;15.02;;;12.30;54.40;;;;;;4928243;29;20512;-66
2022/03/25 10:23:17;;;;;;;26.13;14.35;;;12.40;53.50;;;;;;4949708;29;20046;-67
2022/03/25 10:25:55;;;;;;;29.70;15.40;;;12.40;53.30;;;;;;4921204;29;20066;-66
2022/03/25 10:28:31;;;;;;;31.80;16.13;;;12.50;53.70;;;;;;4953390;28;20570;-67
2022/03/25 10:30:57;;;;;;;27.27;15.15;;;12.60;52.80;;;;;;4954525;29;20419;-66
2022/03/25 10:33:42;;;;;;;29.92;17.30;;;12.60;52.60;;;;;;4937979;28;20058;-66
2022/03/25 10:36:15;;;;;;;34.85;17.30;;;12.70;51.70;;;;;;4921869;29;20420;-67
2022/03/25 10:38:49;;;;;;;35.83;17.25;;;12.70;50.50;;;;;;4944231;28;20044;-66
2022/03/25 10:41:18;;;;;;;28.08;16.65;;;12.80;50.80;;;;;;4953645;28;20512;-66
2022/03/25 10:43:50;;;;;;;30.48;16.85;;;12.80;51.20;;;;;;4953632;28;20050;-66
2022/03/25 10:46:34;;;;;;;33.83;18.15;;;12.80;50.70;;;;;;4936586;29;20055;-66
2022/03/25 10:49:05;;;;;;;30.13;17.35;;;12.90;49.50;;;;;;4935098;29;20048;-66
2022/03/25 10:51:31;;;;;;;36.15;17.85;;;12.90;50.50;;;;;;4933820;29;20044;-66
2022/03/25 10:53:59;;;;;;;29.63;16.08;;;13.00;50.20;;;;;;4933264;29;20043;-67
2022/03/25 10:56:26;;;;;;;33.08;17.08;;;13.10;48.50;;;;;;4933358;29;20040;-66
2022/03/25 10:58:54;;;;;;;29.98;16.45;;;13.10;49.10;;;;;;4933861;29;20123;-67
2022/03/25 11:01:20;;;;;;;35.45;19.10;;;13.20;48.80;;;;;;4909152;29;20055;-67
2022/03/25 11:03:49;;;;;;;31.50;18.40;;;13.20;49.40;;;;;;4925654;29;20774;-67
2022/03/25 11:06:15;;;;;;;33.30;17.92;;;13.30;49.10;;;;;;4904690;29;20109;-67
2022/03/25 11:08:42;;;;;;;31.83;17.67;;;13.30;49.40;;;;;;4916709;29;20048;-67
2022/03/25 11:11:08;;;;;;;32.97;18.33;;;13.40;47.80;;;;;;4920994;29;20044;-66
2022/03/25 11:13:35;;;;;;;31.80;18.58;;;13.50;47.30;;;;;;4920997;29;20398;-66
2022/03/25 11:16:02;;;;;;;34.22;17.80;;;13.40;47.90;;;;;;4929716;29;20047;-67
2022/03/25 11:18:28;;;;;;;30.00;18.35;;;13.50;48.20;;;;;;4930586;29;20067;-67
2022/03/25 11:20:58;;;;;;;33.30;17.10;;;13.60;48.20;;;;;;4914635;29;20054;-67
2022/03/25 11:23:28;;;;;;;31.48;18.13;;;13.60;48.70;;;;;;4931116;29;20070;-67
2022/03/25 11:25:57;;;;;;;32.38;17.02;;;13.70;48.30;;;;;;4930937;29;20048;-67
2022/03/25 11:28:33;;;;;;;31.58;18.30;;;13.80;48.50;;;;;;4931448;29;20047;-68
2022/03/25 11:31:01;;;;;;;29.73;18.00;;;13.90;47.70;;;;;;4926723;29;20059;-66
2022/03/25 11:33:27;;;;;;;30.80;16.58;;;13.90;47.60;;;;;;4927091;29;20568;-68
2022/03/25 11:36:19;;;;;;;31.17;16.27;;;14.00;47.10;;;;;;4922900;29;20086;-67
2022/03/25 11:38:45;;;;;;;28.77;16.58;;;14.10;45.10;;;;;;4929565;29;20055;-68
2022/03/25 11:41:25;;;;;;;31.75;16.92;;;14.10;47.20;;;;;;4925632;29;20057;-68
2022/03/25 11:44:15;;;;;;;24.85;14.55;;;14.20;46.50;;;;;;4930802;29;20048;-67
2022/03/25 11:47:16;;;;;;;28.90;15.95;;;14.20;45.80;;;;;;4929563;29;20106;-67
2022/03/25 11:49:43;;;;;;;26.25;15.35;;;14.30;45.10;;;;;;4831934;29;20052;-67
2022/03/25 11:52:29;;;;;;;28.05;14.68;;;14.30;45.30;;;;;;4912671;29;20055;-67
2022/03/25 11:54:58;;;;;;;31.25;16.60;;;14.50;44.00;;;;;;4929700;29;20420;-72
2022/03/25 11:57:30;;;;;;;23.80;14.40;;;14.50;44.30;;;;;;4931186;29;20409;-67
2022/03/25 12:00:00;;;;;;;29.33;13.57;;;14.50;44.00;;;;;;4930764;29;20047;-67
2022/03/25 12:02:30;;;;;;;23.90;13.27;;;14.50;43.40;;;;;;4927549;29;20055;-66
2022/03/25 12:04:58;;;;;;;27.70;12.45;;;14.60;42.80;;;;;;4929353;29;20055;-66
2022/03/25 12:07:24;;;;;;;34.78;14.25;;;14.70;43.00;;;;;;4914261;29;20139;-66
2022/03/25 12:09:50;;;;;;;26.67;14.32;;;14.90;41.50;;;;;;4930784;29;20556;-67
2022/03/25 12:12:15;;;;;;;21.45;12.32;;;14.90;41.30;;;;;;4912146;29;20047;-66
2022/03/25 12:15:11;;;;;;;25.73;12.10;;;14.90;41.50;;;;;;4931378;29;20056;-66
2022/03/25 12:17:37;;;;;;;23.42;11.45;;;15.00;41.10;;;;;;4929025;29;20058;-66
2022/03/25 12:20:04;;;;;;;23.10;13.48;;;15.00;41.40;;;;;;4929310;29;20047;-67
2022/03/25 12:22:33;;;;;;;28.13;12.55;;;15.10;40.90;;;;;;4927651;29;20575;-66
2022/03/25 12:25:13;;;;;;;22.42;12.32;;;15.10;40.20;;;;;;4914083;29;20131;-66
2022/03/25 12:27:39;;;;;;;23.88;12.57;;;15.10;40.60;;;;;;4911855;29;20071;-66
2022/03/25 12:30:06;;;;;;;21.23;13.40;;;15.10;40.80;;;;;;4929079;29;20095;-66
2022/03/25 12:32:35;;;;;;;29.10;16.52;;;15.10;40.80;;;;;;4929658;29;20039;-66
2022/03/25 12:35:02;;;;;;;26.67;15.80;;;15.20;41.60;;;;;;4920935;29;20040;-65
2022/03/25 12:37:31;;;;;;;34.33;17.60;;;15.30;42.00;;;;;;4921168;29;20040;-66
2022/03/25 12:40:14;;;;;;;32.95;17.88;;;15.30;42.30;;;;;;4926073;29;20378;-66
2022/03/25 12:42:40;;;;;;;29.65;18.33;;;15.30;41.90;;;;;;4929073;29;20048;-66